Time;durP1;ratioP1;P1;durP2;ratioP2;P2;SDS_P1;SDS_P2;PMS_P1;PMS_P2;Temp;Humidity;BMP_temperature;BMP_pressure;BME280_temperature;BME280_humidity;BME280_pressure;Samples;Min_cycle;Max_cycle;Signal;HPM_P1;HPM_P2
2024/01/11 00:01:37;;;;;;;38.53;36.80;;;;;;;;;;4114997;28;20054;-64
2024/01/11 00:03:38;;;;;;;38.38;36.45;;;;;;;;;;4115121;28;20054;-65
2024/01/11 00:05:41;;;;;;;38.27;36.47;;;;;;;;;;4115714;28;20086;-64
2024/01/11 00:07:43;;;;;;;38.28;36.55;;;;;;;;;;4115600;28;20483;-64
2024/01/11 00:09:44;;;;;;;37.63;35.88;;;;;;;;;;4115176;28;20046;-64
2024/01/11 00:11:46;;;;;;;38.58;36.80;;;;;;;;;;4116169;28;20077;-64
2024/01/11 00:13:48;;;;;;;36.50;34.85;;;;;;;;;;4118758;28;20043;-65
2024/01/11 00:15:49;;;;;;;39.80;37.90;;;;;;;;;;4118754;28;20054;-65
2024/01/11 00:17:51;;;;;;;42.70;40.08;;;;;;;;;;4118775;28;20039;-65
2024/01/11 00:19:53;;;;;;;39.00;37.40;;;;;;;;;;4118643;28;20491;-65
2024/01/11 00:21:55;;;;;;;38.85;37.08;;;;;;;;;;4118718;28;20058;-65
2024/01/11 00:23:56;;;;;;;39.85;38.03;;;;;;;;;;4118847;28;20047;-65
2024/01/11 00:25:59;;;;;;;39.60;37.92;;;;;;;;;;4118850;28;20078;-64
2024/01/11 00:28:01;;;;;;;37.90;36.30;;;;;;;;;;4118593;28;20129;-65
2024/01/11 00:30:03;;;;;;;36.28;34.80;;;;;;;;;;4118671;28;20446;-65
2024/01/11 00:32:05;;;;;;;38.80;37.17;;;;;;;;;;4118652;28;20070;-65
2024/01/11 00:34:07;;;;;;;35.08;33.67;;;;;;;;;;4118756;28;20499;-65
2024/01/11 00:36:08;;;;;;;36.57;34.97;;;;;;;;;;4118839;28;20046;-64
2024/01/11 00:38:10;;;;;;;39.33;37.30;;;;;;;;;;4118413;28;20325;-65
2024/01/11 00:40:12;;;;;;;38.30;36.77;;;;;;;;;;4118489;28;20047;-65
2024/01/11 00:42:13;;;;;;;35.03;33.63;;;;;;;;;;4118386;28;20050;-65
2024/01/11 00:44:15;;;;;;;36.55;35.00;;;;;;;;;;4119712;28;20070;-65
2024/01/11 00:46:16;;;;;;;38.22;36.33;;;;;;;;;;4118451;28;20057;-65
2024/01/11 00:48:18;;;;;;;39.43;37.43;;;;;;;;;;4118252;28;20133;-64
2024/01/11 00:50:20;;;;;;;41.07;39.23;;;;;;;;;;4118338;28;20031;-64
2024/01/11 00:52:22;;;;;;;37.97;36.20;;;;;;;;;;4118104;28;20679;-65
2024/01/11 00:54:24;;;;;;;41.90;39.72;;;;;;;;;;4118501;28;20050;-65
2024/01/11 00:56:26;;;;;;;;;;;;;;;;;;4118657;28;20073;-65
2024/01/11 00:58:28;;;;;;;36.45;35.15;;;;;;;;;;4118562;28;19922;-65
2024/01/11 01:00:29;;;;;;;36.07;34.57;;;;;;;;;;4118017;28;20046;-65
2024/01/11 01:02:31;;;;;;;34.83;33.33;;;;;;;;;;4117476;28;20480;-64
2024/01/11 01:04:32;;;;;;;35.83;34.17;;;;;;;;;;4117015;28;20043;-65
2024/01/11 01:06:34;;;;;;;39.10;37.42;;;;;;;;;;4118291;28;20286;-65
2024/01/11 01:08:36;;;;;;;35.57;34.27;;;;;;;;;;4117698;28;20051;-65
2024/01/11 01:10:37;;;;;;;35.67;34.17;;;;;;;;;;4117941;28;20043;-65
2024/01/11 01:12:39;;;;;;;33.72;32.40;;;;;;;;;;4118165;28;20293;-64
2024/01/11 01:14:41;;;;;;;35.23;33.67;;;;;;;;;;4118410;28;20045;-65
2024/01/11 01:16:42;;;;;;;37.42;35.83;;;;;;;;;;4117998;28;20125;-65
2024/01/11 01:18:44;;;;;;;34.78;33.45;;;;;;;;;;4117948;28;20042;-65
2024/01/11 01:20:46;;;;;;;35.58;34.28;;;;;;;;;;4117989;28;20074;-64
2024/01/11 01:22:47;;;;;;;34.57;33.17;;;;;;;;;;4117904;28;20101;-65
2024/01/11 01:24:49;;;;;;;33.83;32.83;;;;;;;;;;4116732;28;20282;-65
2024/01/11 01:26:51;;;;;;;32.33;31.33;;;;;;;;;;4117915;28;20050;-65
2024/01/11 01:28:52;;;;;;;37.03;35.75;;;;;;;;;;4117830;28;20290;-65
2024/01/11 01:30:54;;;;;;;35.63;34.43;;;;;;;;;;4117729;28;20045;-65
2024/01/11 01:32:56;;;;;;;35.53;34.33;;;;;;;;;;4117582;28;20447;-65
2024/01/11 01:34:58;;;;;;;36.08;34.78;;;;;;;;;;4117633;28;20101;-65
2024/01/11 01:36:59;;;;;;;33.55;32.55;;;;;;;;;;4117479;28;20042;-65
2024/01/11 01:39:01;;;;;;;37.45;36.30;;;;;;;;;;4117449;28;20117;-65
2024/01/11 01:41:03;;;;;;;34.58;33.47;;;;;;;;;;4117622;28;20078;-65
2024/01/11 01:43:10;;;;;;;32.67;31.67;;;;;;;;;;4117784;28;20141;-65
2024/01/11 01:45:12;;;;;;;37.17;35.65;;;;;;;;;;4119038;28;20038;-65
2024/01/11 01:47:13;;;;;;;35.60;34.30;;;;;;;;;;4117438;28;20038;-64
2024/01/11 01:49:18;;;;;;;33.83;32.55;;;;;;;;;;4117483;28;20126;-64
2024/01/11 01:51:20;;;;;;;35.58;34.17;;;;;;;;;;4117367;28;20051;-65
2024/01/11 01:53:22;;;;;;;36.20;34.92;;;;;;;;;;4117575;28;20061;-64
2024/01/11 01:55:25;;;;;;;36.45;34.80;;;;;;;;;;4117507;28;20162;-64
2024/01/11 01:57:26;;;;;;;32.78;31.63;;;;;;;;;;4116965;28;20042;-65
2024/01/11 01:59:29;;;;;;;33.45;32.20;;;;;;;;;;4117352;28;20239;-65
2024/01/11 02:01:31;;;;;;;36.92;35.72;;;;;;;;;;4099832;28;20083;-65
2024/01/11 02:03:34;;;;;;;35.58;34.28;;;;;;;;;;4116809;28;20055;-65
2024/01/11 02:05:36;;;;;;;33.30;32.30;;;;;;;;;;4117111;28;20047;-65
2024/01/11 02:07:39;;;;;;;32.95;31.77;;;;;;;;;;4117106;28;20039;-65
2024/01/11 02:09:42;;;;;;;31.90;31.00;;;;;;;;;;4116721;28;20081;-64
2024/01/11 02:11:45;;;;;;;35.50;34.30;;;;;;;;;;4116826;28;20046;-64
2024/01/11 02:13:46;;;;;;;35.20;34.00;;;;;;;;;;4117003;28;20499;-65
2024/01/11 02:15:48;;;;;;;30.23;29.38;;;;;;;;;;4116954;28;20039;-65
2024/01/11 02:17:49;;;;;;;35.17;34.08;;;;;;;;;;4117082;28;20439;-65
2024/01/11 02:19:51;;;;;;;32.83;31.67;;;;;;;;;;4116839;28;20046;-65
2024/01/11 02:21:54;;;;;;;33.78;32.75;;;;;;;;;;4117111;28;20062;-64
2024/01/11 02:24:06;;;;;;;36.55;35.35;;;;;;;;;;4116909;28;20039;-64
2024/01/11 02:26:08;;;;;;;33.92;32.72;;;;;;;;;;4116911;28;20039;-65
2024/01/11 02:28:11;;;;;;;32.95;31.88;;;;;;;;;;4116687;28;20039;-65
2024/01/11 02:30:12;;;;;;;31.15;30.25;;;;;;;;;;4116883;28;20481;-65
2024/01/11 02:32:14;;;;;;;35.55;34.42;;;;;;;;;;4116902;28;20035;-65
2024/01/11 02:34:16;;;;;;;33.83;32.73;;;;;;;;;;4099362;28;20055;-64
2024/01/11 02:36:18;;;;;;;35.63;34.53;;;;;;;;;;4100699;29;20818;-65
2024/01/11 02:38:20;;;;;;;34.65;33.40;;;;;;;;;;4100637;29;20047;-65
2024/01/11 02:40:22;;;;;;;33.17;32.17;;;;;;;;;;4100462;29;20557;-65
2024/01/11 02:42:24;;;;;;;35.40;34.22;;;;;;;;;;4083798;29;20051;-65
2024/01/11 02:44:25;;;;;;;34.22;33.03;;;;;;;;;;4110188;28;20038;-65
2024/01/11 02:46:27;;;;;;;31.65;30.77;;;;;;;;;;4116866;28;20042;-64
2024/01/11 02:48:29;;;;;;;32.75;31.80;;;;;;;;;;4116498;28;20050;-65
2024/01/11 02:50:32;;;;;;;33.78;32.67;;;;;;;;;;4116385;28;20047;-64
2024/01/11 02:52:34;;;;;;;33.63;32.53;;;;;;;;;;4116355;28;20055;-64
2024/01/11 02:54:35;;;;;;;33.75;32.75;;;;;;;;;;4116828;28;20102;-61
2024/01/11 02:56:37;;;;;;;31.63;30.73;;;;;;;;;;4116542;28;20047;-61
2024/01/11 02:58:38;;;;;;;34.97;33.97;;;;;;;;;;4116598;28;20391;-61
2024/01/11 03:00:40;;;;;;;36.53;35.22;;;;;;;;;;4116205;28;20138;-61
2024/01/11 03:02:42;;;;;;;29.20;28.58;;;;;;;;;;4115911;28;20093;-61
2024/01/11 03:04:43;;;;;;;33.58;32.67;;;;;;;;;;4116282;28;20534;-61
2024/01/11 03:06:45;;;;;;;34.45;33.55;;;;;;;;;;4116073;28;20105;-61
2024/01/11 03:08:48;;;;;;;35.30;34.30;;;;;;;;;;4116133;28;20514;-61
2024/01/11 03:10:50;;;;;;;33.30;32.38;;;;;;;;;;4116020;28;20039;-61
2024/01/11 03:12:51;;;;;;;33.38;32.40;;;;;;;;;;4116274;28;20039;-61
2024/01/11 03:14:53;;;;;;;33.40;32.50;;;;;;;;;;4116263;28;20042;-61
2024/01/11 03:16:55;;;;;;;31.65;30.85;;;;;;;;;;4115986;28;20126;-61
2024/01/11 03:18:57;;;;;;;32.42;31.65;;;;;;;;;;4115989;28;20053;-61
2024/01/11 03:20:58;;;;;;;31.80;30.90;;;;;;;;;;4116167;28;20046;-61
2024/01/11 03:23:00;;;;;;;36.53;35.33;;;;;;;;;;4115729;28;20310;-61
2024/01/11 03:25:02;;;;;;;35.40;34.30;;;;;;;;;;4116138;28;20047;-61
2024/01/11 03:27:04;;;;;;;34.53;33.53;;;;;;;;;;4116058;28;20105;-61
2024/01/11 03:29:06;;;;;;;32.35;31.40;;;;;;;;;;4115838;28;20060;-61
2024/01/11 03:31:09;;;;;;;31.13;30.25;;;;;;;;;;4115804;28;20043;-61
2024/01/11 03:33:10;;;;;;;33.33;32.33;;;;;;;;;;4115697;28;20046;-61
2024/01/11 03:35:12;;;;;;;33.92;32.92;;;;;;;;;;4115873;28;20083;-61
2024/01/11 03:37:14;;;;;;;32.13;31.23;;;;;;;;;;4115199;28;20046;-61
2024/01/11 03:39:16;;;;;;;36.33;35.05;;;;;;;;;;4114594;28;20043;-61
2024/01/11 03:41:17;;;;;;;31.90;30.98;;;;;;;;;;4114253;28;20042;-61
2024/01/11 03:43:19;;;;;;;35.17;33.90;;;;;;;;;;4114377;28;20042;-61
2024/01/11 03:45:20;;;;;;;31.00;29.90;;;;;;;;;;4115557;28;20105;-61
2024/01/11 03:47:22;;;;;;;38.30;36.38;;;;;;;;;;4113465;28;20073;-61
2024/01/11 03:49:24;;;;;;;37.65;36.13;;;;;;;;;;4113893;28;20042;-61
2024/01/11 03:51:25;;;;;;;34.20;33.17;;;;;;;;;;4114079;28;20035;-62
2024/01/11 03:53:28;;;;;;;35.00;34.00;;;;;;;;;;4114378;28;20042;-61
2024/01/11 03:55:29;;;;;;;;;;;;;;;;;;4116269;28;20077;-61
2024/01/11 03:57:31;;;;;;;34.08;33.17;;;;;;;;;;4115489;28;20021;-61
2024/01/11 03:59:33;;;;;;;34.00;32.83;;;;;;;;;;4115477;28;20463;-61
2024/01/11 04:01:39;;;;;;;32.60;31.45;;;;;;;;;;4115011;28;20166;-61
2024/01/11 04:03:41;;;;;;;37.25;35.92;;;;;;;;;;4115472;28;20186;-65
2024/01/11 04:05:43;;;;;;;33.85;32.75;;;;;;;;;;4115405;28;20054;-64
2024/01/11 04:07:45;;;;;;;33.83;32.78;;;;;;;;;;4115627;28;20043;-65
2024/01/11 04:09:46;;;;;;;36.75;35.58;;;;;;;;;;4115399;28;20047;-63
2024/01/11 04:11:48;;;;;;;34.38;33.47;;;;;;;;;;4115344;28;20035;-64
2024/01/11 04:13:50;;;;;;;36.28;35.20;;;;;;;;;;4115301;28;20039;-64
2024/01/11 04:15:51;;;;;;;29.90;28.90;;;;;;;;;;4114095;28;20047;-65
2024/01/11 04:17:53;;;;;;;31.92;31.13;;;;;;;;;;4115308;28;20054;-65
2024/01/11 04:19:55;;;;;;;34.47;33.67;;;;;;;;;;4115188;28;20066;-64
2024/01/11 04:21:56;;;;;;;33.33;32.07;;;;;;;;;;4115504;28;20050;-65
2024/01/11 04:23:58;;;;;;;31.90;31.10;;;;;;;;;;4115579;28;20325;-65
2024/01/11 04:26:00;;;;;;;31.27;30.50;;;;;;;;;;4115304;28;20047;-64
2024/01/11 04:28:01;;;;;;;33.73;32.93;;;;;;;;;;4115219;28;20422;-65
2024/01/11 04:30:04;;;;;;;28.42;27.85;;;;;;;;;;4115551;28;20042;-64
2024/01/11 04:32:05;;;;;;;32.53;31.42;;;;;;;;;;4115568;28;20495;-65
2024/01/11 04:34:07;;;;;;;29.13;28.63;;;;;;;;;;4115378;28;20073;-65
2024/01/11 04:36:09;;;;;;;33.40;32.60;;;;;;;;;;4115354;28;20042;-65
2024/01/11 04:38:11;;;;;;;31.88;31.27;;;;;;;;;;4115597;28;20407;-65
2024/01/11 04:40:12;;;;;;;31.60;31.00;;;;;;;;;;4115445;28;20047;-64
2024/01/11 04:42:14;;;;;;;34.28;33.58;;;;;;;;;;4113968;28;20109;-64
2024/01/11 04:44:16;;;;;;;32.07;31.37;;;;;;;;;;4116685;28;20035;-64
2024/01/11 04:46:21;;;;;;;30.73;30.13;;;;;;;;;;4115419;28;20297;-64
2024/01/11 04:48:23;;;;;;;32.15;31.50;;;;;;;;;;4114707;28;20286;-64
2024/01/11 04:50:25;;;;;;;31.43;30.83;;;;;;;;;;4099370;29;20043;-65
2024/01/11 04:52:27;;;;;;;33.03;32.38;;;;;;;;;;4099132;29;20122;-65
2024/01/11 04:54:28;;;;;;;33.58;32.88;;;;;;;;;;4099492;29;20035;-65
2024/01/11 04:56:30;;;;;;;31.42;30.80;;;;;;;;;;4099309;29;20051;-65
2024/01/11 04:58:31;;;;;;;31.02;30.42;;;;;;;;;;4101051;28;20043;-64
2024/01/11 05:00:33;;;;;;;28.77;28.33;;;;;;;;;;4102152;29;20110;-65
2024/01/11 05:02:35;;;;;;;30.55;29.95;;;;;;;;;;4109608;28;20034;-65
2024/01/11 05:04:36;;;;;;;32.08;31.48;;;;;;;;;;4118475;28;20038;-65
2024/01/11 05:06:38;;;;;;;30.58;29.98;;;;;;;;;;4118272;28;20303;-65
2024/01/11 05:08:40;;;;;;;31.43;30.83;;;;;;;;;;4117840;28;20073;-65
2024/01/11 05:10:42;;;;;;;29.25;28.75;;;;;;;;;;4117837;28;20522;-65
2024/01/11 05:12:43;;;;;;;31.17;30.58;;;;;;;;;;4118164;28;20451;-65
2024/01/11 05:14:45;;;;;;;31.20;30.60;;;;;;;;;;4117174;28;20047;-61
2024/01/11 05:16:47;;;;;;;29.88;29.35;;;;;;;;;;4101786;28;20241;-61
2024/01/11 05:18:49;;;;;;;31.15;30.60;;;;;;;;;;4102112;29;20043;-61
2024/01/11 05:20:51;;;;;;;29.10;28.58;;;;;;;;;;4109232;28;20470;-61
2024/01/11 05:22:52;;;;;;;28.08;27.67;;;;;;;;;;4117639;28;20046;-61
2024/01/11 05:24:54;;;;;;;31.90;31.30;;;;;;;;;;4117911;28;20062;-61
2024/01/11 05:26:55;;;;;;;35.33;34.53;;;;;;;;;;4117325;28;20049;-61
2024/01/11 05:28:57;;;;;;;29.87;29.37;;;;;;;;;;4117779;28;20098;-61
2024/01/11 05:30:59;;;;;;;29.73;29.23;;;;;;;;;;4117565;28;20042;-61
2024/01/11 05:33:00;;;;;;;30.17;29.67;;;;;;;;;;4117811;28;20097;-61
2024/01/11 05:35:02;;;;;;;30.98;30.20;;;;;;;;;;4117354;28;20047;-61
2024/01/11 05:37:04;;;;;;;32.07;31.47;;;;;;;;;;4117939;28;20062;-61
2024/01/11 05:39:06;;;;;;;30.83;30.27;;;;;;;;;;4117760;28;20344;-61
2024/01/11 05:41:08;;;;;;;31.48;30.80;;;;;;;;;;4117346;28;20074;-61
2024/01/11 05:43:10;;;;;;;32.90;32.25;;;;;;;;;;4117468;28;20116;-61
2024/01/11 05:45:12;;;;;;;32.00;31.33;;;;;;;;;;4118404;28;20113;-61
2024/01/11 05:47:18;;;;;;;33.42;32.45;;;;;;;;;;4113911;28;20043;-62
2024/01/11 05:49:20;;;;;;;34.63;33.20;;;;;;;;;;4100139;29;20538;-61
2024/01/11 05:51:21;;;;;;;37.65;36.05;;;;;;;;;;4117097;28;20305;-61
2024/01/11 05:53:24;;;;;;;33.33;32.20;;;;;;;;;;4117220;28;20529;-61
2024/01/11 05:55:26;;;;;;;33.78;32.47;;;;;;;;;;4117564;28;20035;-61
2024/01/11 05:57:27;;;;;;;38.55;37.22;;;;;;;;;;4116493;28;20126;-61
2024/01/11 05:59:29;;;;;;;36.67;35.47;;;;;;;;;;4116873;28;20403;-61
2024/01/11 06:01:31;;;;;;;33.05;32.08;;;;;;;;;;4116551;28;20399;-61
2024/01/11 06:03:34;;;;;;;36.05;34.85;;;;;;;;;;4099462;29;20067;-61
2024/01/11 06:05:36;;;;;;;33.50;32.40;;;;;;;;;;4116818;28;20042;-61
2024/01/11 06:07:38;;;;;;;32.33;31.17;;;;;;;;;;4116680;28;20047;-62
2024/01/11 06:09:39;;;;;;;32.08;31.08;;;;;;;;;;4116216;28;20470;-61
2024/01/11 06:11:41;;;;;;;36.60;35.53;;;;;;;;;;4116518;28;20803;-61
2024/01/11 06:13:43;;;;;;;33.25;32.55;;;;;;;;;;4116627;28;20514;-61
2024/01/11 06:15:44;;;;;;;34.65;33.85;;;;;;;;;;4117043;28;20051;-62
2024/01/11 06:17:46;;;;;;;33.40;32.70;;;;;;;;;;4116696;28;20741;-64
2024/01/11 06:19:48;;;;;;;34.75;33.95;;;;;;;;;;4116708;28;20502;-59
2024/01/11 06:21:50;;;;;;;34.88;33.67;;;;;;;;;;4115806;28;20074;-59
2024/01/11 06:23:51;;;;;;;37.67;36.53;;;;;;;;;;4104566;28;20050;-59
2024/01/11 06:25:53;;;;;;;32.80;31.87;;;;;;;;;;4100722;29;20043;-60
2024/01/11 06:27:55;;;;;;;36.88;35.67;;;;;;;;;;4100603;29;20046;-61
2024/01/11 06:29:57;;;;;;;37.45;35.90;;;;;;;;;;4100613;29;20464;-61
2024/01/11 06:31:58;;;;;;;38.22;36.78;;;;;;;;;;4100396;29;20035;-61
2024/01/11 06:34:00;;;;;;;38.67;37.07;;;;;;;;;;4100735;29;20044;-61
2024/01/11 06:36:02;;;;;;;39.47;37.60;;;;;;;;;;4100584;29;20476;-61
2024/01/11 06:38:04;;;;;;;41.72;39.45;;;;;;;;;;4111157;28;20407;-61
2024/01/11 06:40:08;;;;;;;40.67;38.75;;;;;;;;;;4114981;28;20035;-61
2024/01/11 06:42:09;;;;;;;37.97;36.28;;;;;;;;;;4114864;28;20548;-61
2024/01/11 06:44:11;;;;;;;44.92;42.72;;;;;;;;;;4117666;28;20046;-61
2024/01/11 06:46:13;;;;;;;39.67;37.90;;;;;;;;;;4116486;28;20039;-61
2024/01/11 06:48:14;;;;;;;38.60;36.90;;;;;;;;;;4116391;28;20047;-61
2024/01/11 06:50:17;;;;;;;37.72;36.15;;;;;;;;;;4116180;28;20093;-61
2024/01/11 06:52:19;;;;;;;40.03;38.38;;;;;;;;;;4115769;28;20046;-61
2024/01/11 06:54:21;;;;;;;38.05;36.55;;;;;;;;;;4116042;28;20050;-61
2024/01/11 06:56:22;;;;;;;36.50;35.00;;;;;;;;;;4116042;28;20039;-61
2024/01/11 06:58:24;;;;;;;34.93;33.67;;;;;;;;;;4116186;28;20847;-61
2024/01/11 07:00:26;;;;;;;38.33;36.85;;;;;;;;;;4116133;28;20035;-61
2024/01/11 07:02:27;;;;;;;41.03;39.00;;;;;;;;;;4115487;28;20097;-61
2024/01/11 07:04:29;;;;;;;35.90;34.57;;;;;;;;;;4116203;28;20077;-61
2024/01/11 07:06:35;;;;;;;36.03;34.83;;;;;;;;;;4116504;28;20047;-61
2024/01/11 07:08:36;;;;;;;37.50;36.40;;;;;;;;;;4116114;28;20047;-61
2024/01/11 07:10:38;;;;;;;34.80;33.63;;;;;;;;;;4116154;28;20142;-61
2024/01/11 07:12:42;;;;;;;39.05;37.50;;;;;;;;;;4116026;28;20306;-61
2024/01/11 07:14:44;;;;;;;41.72;39.85;;;;;;;;;;4115816;28;20380;-62
2024/01/11 07:16:45;;;;;;;43.00;40.90;;;;;;;;;;4116039;28;20043;-61
2024/01/11 07:18:47;;;;;;;40.03;38.15;;;;;;;;;;4115913;28;20046;-61
2024/01/11 07:20:49;;;;;;;40.13;38.53;;;;;;;;;;4115829;28;20045;-61
2024/01/11 07:22:51;;;;;;;39.80;38.50;;;;;;;;;;4115700;28;20105;-61
2024/01/11 07:24:53;;;;;;;36.10;34.72;;;;;;;;;;4115809;28;20101;-62
2024/01/11 07:26:54;;;;;;;38.78;37.42;;;;;;;;;;4116101;28;20062;-62
2024/01/11 07:28:56;;;;;;;36.40;35.30;;;;;;;;;;4115943;28;20073;-61
2024/01/11 07:30:58;;;;;;;35.42;34.30;;;;;;;;;;4115513;28;20043;-61
2024/01/11 07:33:00;;;;;;;37.30;35.93;;;;;;;;;;4115836;28;20391;-61
2024/01/11 07:35:02;;;;;;;41.40;39.38;;;;;;;;;;4116069;28;20284;-61
2024/01/11 07:37:08;;;;;;;38.17;36.92;;;;;;;;;;4115741;28;20399;-62
2024/01/11 07:39:09;;;;;;;40.38;38.97;;;;;;;;;;4115696;28;20047;-61
2024/01/11 07:41:11;;;;;;;38.65;37.25;;;;;;;;;;4115885;28;20047;-61
2024/01/11 07:43:13;;;;;;;38.75;37.25;;;;;;;;;;4115696;28;20050;-61
2024/01/11 07:45:15;;;;;;;35.88;34.67;;;;;;;;;;4115532;28;20550;-61
2024/01/11 07:47:17;;;;;;;34.97;33.80;;;;;;;;;;4115973;28;20444;-61
2024/01/11 07:49:19;;;;;;;41.67;40.13;;;;;;;;;;4115801;28;20513;-62
2024/01/11 07:51:20;;;;;;;41.30;39.70;;;;;;;;;;4115525;28;20050;-61
2024/01/11 07:53:23;;;;;;;35.20;33.95;;;;;;;;;;4115728;28;20035;-61
2024/01/11 07:55:26;;;;;;;39.50;37.88;;;;;;;;;;4115491;28;20090;-61
2024/01/11 07:57:28;;;;;;;36.83;35.22;;;;;;;;;;4115589;28;20053;-61
2024/01/11 07:59:35;;;;;;;37.08;35.67;;;;;;;;;;4115561;28;20039;-61
2024/01/11 08:01:37;;;;;;;35.50;34.35;;;;;;;;;;4115235;28;20126;-61
2024/01/11 08:03:41;;;;;;;38.08;36.72;;;;;;;;;;4115338;28;20105;-61
2024/01/11 08:05:44;;;;;;;35.28;34.00;;;;;;;;;;4115144;28;20129;-61
2024/01/11 08:07:46;;;;;;;39.05;37.55;;;;;;;;;;4115240;28;20078;-61
2024/01/11 08:09:47;;;;;;;40.20;38.27;;;;;;;;;;4114846;28;20522;-61
2024/01/11 08:11:49;;;;;;;38.50;36.60;;;;;;;;;;4115164;28;20039;-61
2024/01/11 08:13:54;;;;;;;37.65;36.10;;;;;;;;;;4115364;28;20039;-61
2024/01/11 08:15:57;;;;;;;36.13;34.67;;;;;;;;;;4115035;28;20039;-61
2024/01/11 08:18:00;;;;;;;;;;;;;;;;;;4115501;28;20043;-61
2024/01/11 08:20:03;;;;;;;37.30;35.85;;;;;;;;;;4115409;28;20366;-61
2024/01/11 08:22:05;;;;;;;38.85;37.03;;;;;;;;;;4115104;28;20047;-61
2024/01/11 08:24:06;;;;;;;36.42;34.92;;;;;;;;;;4115179;28;20047;-61
2024/01/11 08:26:08;;;;;;;35.85;34.58;;;;;;;;;;4114965;28;20479;-61
2024/01/11 08:28:10;;;;;;;37.10;35.60;;;;;;;;;;4115385;28;20113;-61
2024/01/11 08:30:12;;;;;;;38.30;36.50;;;;;;;;;;4105765;28;20174;-61
2024/01/11 08:32:14;;;;;;;35.55;33.75;;;;;;;;;;4099226;28;20043;-61
2024/01/11 08:34:31;;;;;;;34.53;33.20;;;;;;;;;;4102309;29;20040;-61
2024/01/11 08:36:34;;;;;;;41.33;39.25;;;;;;;;;;4102328;29;20070;-61
2024/01/11 08:38:36;;;;;;;39.45;37.65;;;;;;;;;;4102451;29;20419;-61
2024/01/11 08:40:38;;;;;;;42.47;40.25;;;;;;;;;;4108891;28;20121;-61
2024/01/11 08:42:41;;;;;;;42.85;39.90;;;;;;;;;;4118334;28;20090;-61
2024/01/11 08:44:42;;;;;;;43.38;40.95;;;;;;;;;;4118473;28;20122;-61
2024/01/11 08:46:44;;;;;;;37.20;35.20;;;;;;;;;;4118135;28;20093;-61
2024/01/11 08:48:46;;;;;;;39.95;37.45;;;;;;;;;;4118272;28;20053;-61
2024/01/11 08:50:47;;;;;;;38.83;37.17;;;;;;;;;;4118069;28;20069;-61
2024/01/11 08:52:49;;;;;;;41.97;39.72;;;;;;;;;;4118001;28;20133;-61
2024/01/11 08:54:51;;;;;;;41.55;39.22;;;;;;;;;;4117918;28;20050;-61
2024/01/11 08:56:52;;;;;;;37.75;36.15;;;;;;;;;;4116363;28;20185;-61
2024/01/11 08:58:54;;;;;;;36.45;35.15;;;;;;;;;;4117873;28;20041;-61
2024/01/11 09:00:56;;;;;;;33.55;32.47;;;;;;;;;;4117430;28;20050;-61
2024/01/11 09:02:57;;;;;;;36.43;34.97;;;;;;;;;;4117531;28;20063;-61
2024/01/11 09:04:59;;;;;;;36.95;35.63;;;;;;;;;;4117914;28;20069;-61
2024/01/11 09:07:01;;;;;;;34.57;33.43;;;;;;;;;;4117513;28;20081;-61
2024/01/11 09:09:03;;;;;;;36.60;35.00;;;;;;;;;;4117558;28;20348;-61
2024/01/11 09:11:04;;;;;;;38.30;36.78;;;;;;;;;;4117542;28;20055;-61
2024/01/11 09:13:06;;;;;;;35.85;34.22;;;;;;;;;;4117635;28;20510;-61
2024/01/11 09:15:08;;;;;;;32.67;31.58;;;;;;;;;;4117853;28;20070;-61
2024/01/11 09:17:10;;;;;;;32.72;31.63;;;;;;;;;;4117663;28;20518;-61
2024/01/11 09:19:12;;;;;;;32.35;31.35;;;;;;;;;;4117592;28;20134;-61
2024/01/11 09:21:13;;;;;;;33.47;32.40;;;;;;;;;;4117512;28;20122;-61
2024/01/11 09:23:16;;;;;;;31.92;30.85;;;;;;;;;;4117685;28;20042;-61
2024/01/11 09:25:17;;;;;;;;;;;;;;;;;;4117880;28;20042;-61
2024/01/11 09:27:19;;;;;;;32.67;31.67;;;;;;;;;;4117405;28;19961;-61
2024/01/11 09:29:21;;;;;;;37.28;35.63;;;;;;;;;;4117793;28;20047;-61
2024/01/11 09:31:22;;;;;;;31.03;30.03;;;;;;;;;;4132471;28;20049;-61
2024/01/11 09:33:24;;;;;;;30.80;29.90;;;;;;;;;;4117300;28;20399;-61
2024/01/11 09:35:27;;;;;;;31.10;30.20;;;;;;;;;;4117454;28;20046;-61
2024/01/11 09:37:28;;;;;;;;;;;;;;;;;;4117732;28;20290;-61
2024/01/11 09:39:30;;;;;;;31.23;30.33;;;;;;;;;;4117146;28;19944;-61
2024/01/11 09:41:31;;;;;;;30.20;29.37;;;;;;;;;;4116982;28;20129;-62
2024/01/11 09:43:33;;;;;;;32.90;32.00;;;;;;;;;;4118526;28;20034;-61
2024/01/11 09:45:36;;;;;;;32.10;31.20;;;;;;;;;;4132280;28;20312;-61
2024/01/11 09:47:38;;;;;;;31.15;30.17;;;;;;;;;;4133292;28;20491;-61
2024/01/11 09:49:40;;;;;;;30.00;29.10;;;;;;;;;;4133429;28;20527;-61
2024/01/11 09:51:43;;;;;;;30.88;29.90;;;;;;;;;;4115634;28;20059;-61
2024/01/11 09:53:44;;;;;;;34.20;32.90;;;;;;;;;;4133331;28;20054;-61
2024/01/11 09:55:46;;;;;;;30.95;29.95;;;;;;;;;;4132678;28;20045;-61
2024/01/11 09:57:50;;;;;;;31.08;30.17;;;;;;;;;;4117439;28;20027;-61
2024/01/11 09:59:53;;;;;;;35.25;34.05;;;;;;;;;;4116884;28;20038;-61
2024/01/11 10:01:56;;;;;;;33.28;31.95;;;;;;;;;;4116548;28;20118;-61
2024/01/11 10:03:57;;;;;;;32.65;31.65;;;;;;;;;;4116676;28;20060;-61
2024/01/11 10:06:01;;;;;;;29.10;28.10;;;;;;;;;;4116985;28;20170;-61
2024/01/11 10:08:03;;;;;;;29.98;29.00;;;;;;;;;;4116666;28;20051;-61
2024/01/11 10:10:07;;;;;;;30.45;29.65;;;;;;;;;;4116825;28;20388;-61
2024/01/11 10:12:09;;;;;;;30.98;30.08;;;;;;;;;;4116835;28;20039;-61
2024/01/11 10:14:12;;;;;;;28.88;28.08;;;;;;;;;;4116773;28;20101;-61
2024/01/11 10:16:13;;;;;;;27.70;26.90;;;;;;;;;;4116776;28;20105;-61
2024/01/11 10:18:15;;;;;;;30.95;29.55;;;;;;;;;;4116834;28;20072;-61
2024/01/11 10:20:17;;;;;;;29.20;27.90;;;;;;;;;;4116893;28;20097;-61
2024/01/11 10:22:20;;;;;;;;;;;;;;;;;;4117222;28;20039;-61
2024/01/11 10:24:25;;;;;;;29.45;28.60;;;;;;;;;;4116634;28;19926;-61
2024/01/11 10:26:28;;;;;;;31.15;30.15;;;;;;;;;;4116692;28;20130;-61
2024/01/11 10:28:29;;;;;;;32.55;31.40;;;;;;;;;;4116565;28;20406;-61
2024/01/11 10:30:32;;;;;;;30.63;29.80;;;;;;;;;;4116652;28;20063;-61
2024/01/11 10:32:34;;;;;;;29.30;28.50;;;;;;;;;;4116471;28;20043;-61
2024/01/11 10:34:39;;;;;;;29.85;28.95;;;;;;;;;;4099414;28;20043;-61
2024/01/11 10:36:41;;;;;;;32.85;31.75;;;;;;;;;;4116581;28;20045;-61
2024/01/11 10:38:43;;;;;;;27.70;26.73;;;;;;;;;;4116751;28;20035;-62
2024/01/11 10:40:45;;;;;;;28.83;28.02;;;;;;;;;;4116204;28;20117;-61
2024/01/11 10:42:51;;;;;;;30.77;29.77;;;;;;;;;;4116423;28;20043;-62
2024/01/11 10:44:55;;;;;;;29.08;28.27;;;;;;;;;;4116266;28;20138;-62
2024/01/11 10:46:58;;;;;;;30.75;29.58;;;;;;;;;;4115250;28;20038;-62
2024/01/11 10:49:01;;;;;;;27.13;26.33;;;;;;;;;;4114582;28;20070;-61
2024/01/11 10:51:05;;;;;;;27.90;27.00;;;;;;;;;;4114617;28;20047;-61
2024/01/11 10:53:10;;;;;;;28.48;27.67;;;;;;;;;;4115709;28;20050;-61
2024/01/11 10:55:12;;;;;;;28.50;27.75;;;;;;;;;;4115781;28;20047;-61
2024/01/11 10:57:14;;;;;;;27.83;27.07;;;;;;;;;;4116220;28;20051;-61
2024/01/11 10:59:17;;;;;;;30.30;29.13;;;;;;;;;;4115228;28;20081;-61
2024/01/11 11:01:20;;;;;;;30.60;29.67;;;;;;;;;;4115284;28;20286;-62
2024/01/11 11:03:26;;;;;;;27.42;26.73;;;;;;;;;;4115449;28;20070;-61
2024/01/11 11:05:29;;;;;;;31.00;30.00;;;;;;;;;;4118819;28;20030;-61
2024/01/11 11:07:34;;;;;;;31.35;30.20;;;;;;;;;;4131496;28;20049;-61
2024/01/11 11:09:37;;;;;;;26.85;26.05;;;;;;;;;;4118708;28;20047;-60
2024/01/11 11:11:39;;;;;;;26.27;25.58;;;;;;;;;;4115362;28;20093;-60
2024/01/11 11:13:41;;;;;;;;;;;;;;;;;;4115856;28;20035;-61
2024/01/11 11:15:46;;;;;;;24.85;24.38;;;;;;;;;;4115494;28;19976;-62
2024/01/11 11:17:49;;;;;;;26.55;25.95;;;;;;;;;;4115444;28;20050;-62
2024/01/11 11:19:52;;;;;;;28.02;27.17;;;;;;;;;;4110567;28;20043;-62
2024/01/11 11:21:53;;;;;;;28.38;27.55;;;;;;;;;;4115656;28;20097;-62
2024/01/11 11:23:56;;;;;;;27.00;26.30;;;;;;;;;;4115406;28;20106;-62
2024/01/11 11:25:58;;;;;;;28.65;27.95;;;;;;;;;;4115249;28;20290;-62
2024/01/11 11:28:04;;;;;;;27.07;26.27;;;;;;;;;;4114773;28;20042;-61
2024/01/11 11:30:08;;;;;;;27.17;26.48;;;;;;;;;;4115820;28;20286;-62
2024/01/11 11:32:10;;;;;;;27.08;26.27;;;;;;;;;;4115258;28;20034;-61
2024/01/11 11:34:12;;;;;;;26.63;25.92;;;;;;;;;;4115426;28;20212;-61
2024/01/11 11:36:17;;;;;;;27.35;26.75;;;;;;;;;;4115215;28;20039;-61
2024/01/11 11:38:20;;;;;;;28.50;27.70;;;;;;;;;;4115394;28;20047;-62
2024/01/11 11:40:21;;;;;;;28.20;27.40;;;;;;;;;;4115560;28;20094;-62
2024/01/11 11:42:24;;;;;;;26.52;25.92;;;;;;;;;;4115056;28;20053;-62
2024/01/11 11:44:26;;;;;;;;;;;;;;;;;;4115928;28;20043;-62
2024/01/11 11:46:27;;;;;;;27.48;26.75;;;;;;;;;;4115271;28;20013;-62
2024/01/11 11:48:29;;;;;;;29.30;28.50;;;;;;;;;;4115587;28;20438;-62
2024/01/11 11:50:31;;;;;;;29.30;28.45;;;;;;;;;;4115516;28;20049;-62
2024/01/11 11:52:34;;;;;;;31.45;30.00;;;;;;;;;;4115407;28;20043;-62
2024/01/11 11:54:37;;;;;;;29.02;28.25;;;;;;;;;;4114508;28;20073;-63